createdAt,value
2018-07-13T00:03:32.574Z,9
2018-07-13T00:13:54.821Z,9
2018-07-13T00:23:52.360Z,11
2018-07-13T00:33:50.177Z,11
2018-07-13T00:43:32.626Z,10
2018-07-13T00:53:32.566Z,12
2018-07-13T01:03:32.670Z,13
2018-07-13T01:13:32.632Z,13
2018-07-13T01:23:32.709Z,13
2018-07-13T01:33:32.745Z,14
2018-07-13T01:43:32.639Z,14
2018-07-13T01:53:32.765Z,16
2018-07-13T02:03:32.673Z,14
2018-07-13T02:13:32.761Z,15
2018-07-13T02:29:59.836Z,16
2018-07-13T02:33:32.644Z,13
2018-07-13T02:43:32.821Z,17
2018-07-13T02:53:32.679Z,16
2018-07-13T03:03:32.816Z,15
2018-07-13T03:13:32.720Z,18
2018-07-13T03:23:32.848Z,18
2018-07-13T03:33:32.769Z,19
2018-07-13T03:43:32.814Z,18
2018-07-13T04:00:00.121Z,18
2018-07-13T04:03:32.774Z,17
2018-07-13T04:13:32.821Z,17
2018-07-13T04:23:32.868Z,17
2018-07-13T04:33:32.831Z,18
2018-07-13T04:43:32.900Z,15
2018-07-13T04:53:32.887Z,17
2018-07-13T05:03:32.952Z,16
2018-07-13T05:13:32.921Z,17
2018-07-13T05:23:32.909Z,14
2018-07-13T05:33:32.931Z,15
2018-07-13T05:43:32.939Z,17
2018-07-13T05:53:33.046Z,15
2018-07-13T06:03:32.851Z,15
2018-07-13T06:13:32.986Z,13
2018-07-13T06:23:32.911Z,12
2018-07-13T06:33:32.977Z,13
2018-07-13T06:43:33.098Z,13
2018-07-13T06:53:32.994Z,12
2018-07-13T07:03:32.999Z,15
2018-07-13T07:13:33.048Z,12
2018-07-13T07:23:33.069Z,12
2018-07-13T07:33:33.015Z,11
2018-07-13T07:43:33.056Z,9
2018-07-13T07:53:33.099Z,8
2018-07-13T08:03:33.160Z,6
2018-07-13T08:13:33.436Z,6
2018-07-13T08:23:33.064Z,6
2018-07-13T08:33:33.176Z,5
2018-07-13T08:43:33.112Z,5
2018-07-13T08:53:33.280Z,5
2018-07-13T09:03:33.087Z,4
2018-07-13T09:13:33.704Z,5
2018-07-13T09:23:33.173Z,6
2018-07-13T09:33:36.503Z,7
2018-07-13T09:43:33.308Z,7
2018-07-13T09:53:33.261Z,6
2018-07-13T10:03:33.224Z,7
2018-07-13T10:13:33.141Z,7
2018-07-13T10:23:33.135Z,6
2018-07-13T10:33:33.055Z,6
2018-07-13T10:43:33.036Z,6
2018-07-13T10:53:33.011Z,6
2018-07-13T11:03:33.070Z,6
2018-07-13T11:13:33.192Z,5
2018-07-13T11:23:33.239Z,5
2018-07-13T11:33:33.139Z,6
2018-07-13T11:43:33.046Z,5
2018-07-13T11:53:33.095Z,5
2018-07-13T12:03:33.047Z,6
2018-07-13T12:13:33.114Z,5
2018-07-13T12:23:33.101Z,5
2018-07-13T12:33:33.155Z,5
2018-07-13T12:43:33.053Z,4
2018-07-13T12:53:33.119Z,5
2018-07-13T13:03:33.110Z,4
2018-07-13T13:13:33.233Z,4
2018-07-13T13:23:33.186Z,5
2018-07-13T13:33:33.204Z,4
2018-07-13T13:43:33.191Z,5
2018-07-13T13:53:34.067Z,4
2018-07-13T14:03:33.130Z,4
2018-07-13T14:13:33.167Z,4
2018-07-13T14:23:33.165Z,5
2018-07-13T14:33:33.138Z,3
2018-07-13T14:43:33.114Z,5
2018-07-13T14:53:33.259Z,4
2018-07-13T15:03:33.106Z,4
2018-07-13T15:13:33.137Z,3
2018-07-13T15:23:33.202Z,3
2018-07-13T15:33:33.106Z,3
2018-07-13T15:43:33.131Z,3
2018-07-13T15:53:33.108Z,3
2018-07-13T16:03:33.172Z,4
2018-07-13T16:13:33.728Z,4
2018-07-13T16:23:33.176Z,4
2018-07-13T16:33:33.189Z,4
2018-07-13T16:43:33.105Z,4
2018-07-13T16:53:33.163Z,4
2018-07-13T17:03:33.292Z,4
2018-07-13T17:13:33.199Z,5
2018-07-13T17:23:33.168Z,4
2018-07-13T17:33:33.160Z,5
2018-07-13T17:43:33.302Z,4
2018-07-13T17:53:33.151Z,4
2018-07-13T18:03:33.375Z,4
2018-07-13T18:13:34.269Z,4
2018-07-13T18:23:33.499Z,4
2018-07-13T18:33:33.288Z,4
2018-07-13T18:43:33.487Z,3
2018-07-13T18:53:33.166Z,4
2018-07-13T19:03:33.316Z,4
2018-07-13T19:13:33.430Z,5
2018-07-13T19:23:33.319Z,5
2018-07-13T19:33:33.375Z,4
2018-07-13T19:43:33.521Z,4
2018-07-13T19:53:33.357Z,5
2018-07-13T20:03:33.344Z,5
2018-07-13T20:13:33.247Z,6
2018-07-13T20:23:33.450Z,6
2018-07-13T20:33:33.459Z,5
2018-07-13T20:43:33.517Z,5
2018-07-13T20:53:33.748Z,5
2018-07-13T21:03:34.763Z,5
2018-07-13T21:13:34.364Z,5
2018-07-13T21:23:33.921Z,7
2018-07-13T21:33:33.600Z,6
2018-07-13T21:43:34.045Z,7
2018-07-13T21:53:34.167Z,6
2018-07-13T22:03:33.770Z,6
2018-07-13T22:13:38.226Z,6
2018-07-13T22:23:34.159Z,6
2018-07-13T22:33:33.445Z,7
2018-07-13T22:43:33.264Z,6
2018-07-13T22:53:33.296Z,6
2018-07-13T23:03:33.200Z,7
2018-07-13T23:13:33.300Z,7
2018-07-13T23:23:33.265Z,8
2018-07-13T23:33:33.285Z,9
2018-07-13T23:43:33.240Z,8
2018-07-13T23:53:33.255Z,9
